Nearby METAR Reports

KLNK - Lincoln, Nebraska, USA
Distance from station: WNW 8mi, 13km
Updated: Tue, 12-Nov-2019 2:54pm CST
Clear
Clear
 Wind from S
Wind: S 23 mph , 37 km/h, Gust: 31 mph , 50 km/h
Temperature: 28°F , -2°C
Wind Chill: 14°F , -10°C
Dew Point: 10°F , -12°C
Humidity: 47%
Barometer: 30.28 inHg , 1025.4 hPa
Clouds: Clear
Visibility: 10 miles , 16 km
2019/11/12 20:54 KLNK 122054Z AUTO 19020G27KT 10SM CLR M02/M12 A3028 RMK AO2 PK WND 17028/2038 SLP272 T10221117 56052
KAHQ - Wahoo, Nebraska, USA
Distance from station: N 31mi, 49km
Updated: Tue, 12-Nov-2019 2:55pm CST
Clear
Clear
 Wind from S
Wind: S 17 mph , 28 km/h, Gust: 22 mph , 35 km/h
Temperature: 28°F , -2°C
Wind Chill: 16°F , -9°C
Dew Point: 14°F , -10°C
Humidity: 55%
Barometer: 30.26 inHg , 1024.7 hPa
Clouds: Clear
Visibility: 10 miles , 16 km
2019/11/12 20:55 KAHQ 122055Z AUTO 17015G19KT 10SM CLR M02/M10 A3026 RMK AO2 T10181097
 
KBIE - Beatrice Municip, Nebraska, USA
Distance from station: S 36mi, 57km
Updated: Tue, 12-Nov-2019 2:55pm CST
Clear
Clear
 Wind from S
Wind: S 15 mph , 24 km/h, Gust: 22 mph , 35 km/h
Temperature: 30°F , -1°C
Wind Chill: 19°F , -7°C
Dew Point: 14°F , -10°C
Humidity: 51%
Barometer: 30.30 inHg , 1026.1 hPa
Clouds: Clear
Visibility: 10 miles , 16 km
2019/11/12 20:55 KBIE 122055Z AUTO 19013G19KT 10SM CLR M01/M10 A3030 RMK AO2 T10111100
KMLE - Omaha/Millard, Nebraska, USA
Distance from station: NE 39mi, 63km
Updated: Tue, 12-Nov-2019 2:55pm CST
Clear
Clear
 Wind from SSE
Wind: SSE 14 mph , 22 km/h, Gust: 21 mph , 33 km/h
Temperature: 28°F , -2°C
Wind Chill: 17°F , -8°C
Dew Point: 14°F , -10°C
Humidity: 55%
Barometer: 30.30 inHg , 1026.1 hPa
Clouds: Clear
Visibility: 10 miles , 16 km
2019/11/12 20:55 KMLE 122055Z AUTO 16012G18KT 10SM CLR M02/M10 A3030 RMK AO2 T10201103
 
KPMV - Plattsmouth Muni, Nebraska, USA
Distance from station: ENE 39mi, 63km
Updated: Tue, 12-Nov-2019 2:55pm CST
Clear
Clear
 Wind from S
Wind: S 17 mph , 28 km/h, Gust: 25 mph , 41 km/h
Temperature: 25°F , -4°C
Wind Chill: 12°F , -11°C
Dew Point: 12°F , -11°C
Humidity: 59%
Barometer: 30.32 inHg , 1026.8 hPa
Clouds: Clear
Visibility: 10 miles , 16 km
2019/11/12 20:55 KPMV 122055Z AUTO 17015G22KT 10SM CLR M04/M11 A3032 RMK AO2 T10391109
KAFK - Nebraska City, Nebraska, USA
Distance from station: ESE 43mi, 69km
Updated: Tue, 12-Nov-2019 2:55pm CST
Clear
Clear
 Wind from SSW
Wind: SSW 16 mph , 26 km/h, Gust: 25 mph , 41 km/h
Temperature: 27°F , -3°C
Wind Chill: 15°F , -9°C
Dew Point: 12°F , -11°C
Humidity: 54%
Barometer: 30.34 inHg , 1027.4 hPa
Clouds: Clear
Visibility: 10 miles , 16 km
2019/11/12 20:55 KAFK 122055Z AUTO 20014G22KT 10SM CLR M03/M11 A3034 RMK AO2 T10321109
 
KOFF - Offutt Afb/Belle, Nebraska, USA
Distance from station: ENE 44mi, 70km
Updated: Tue, 12-Nov-2019 2:56pm CST
Clear
Clear
 Wind from S
Wind: S 14 mph , 22 km/h, Gust: 22 mph , 35 km/h
Temperature: 25°F , -4°C
Wind Chill: 13°F , -11°C
Dew Point: 9°F , -13°C
Humidity: 50%
Barometer: 30.32 inHg , 1026.8 hPa
Clouds: Clear
Visibility: 10 miles , 16 km
2019/11/12 20:56 KOFF 122056Z 18012G19KT 10SM CLR M04/M13 A3032 RMK A02A SLP297 $
KFET - Fremont Muni Arp, Nebraska, USA
Distance from station: N 46mi, 74km
Updated: Tue, 12-Nov-2019 2:55pm CST
Clear
Clear
 Wind from S
Wind: S 16 mph , 26 km/h, Gust: 24 mph , 39 km/h
Temperature: 28°F , -2°C
Wind Chill: 16°F , -9°C
Dew Point: 14°F , -10°C
Humidity: 55%
Barometer: 30.24 inHg , 1024 hPa
Clouds: Clear
Visibility: 10 miles , 16 km
2019/11/12 20:55 KFET 122055Z AUTO 17014G21KT 10SM CLR M02/M10 A3024 RMK AO2 T10251097
 
KBTA - Blair Muni, Nebraska, USA
Distance from station: NNE 51mi, 82km
Updated: Tue, 12-Nov-2019 2:55pm CST
Clear
Clear
 Wind from S
Wind: S 18 mph , 30 km/h, Gust: 24 mph , 39 km/h
Temperature: 25°F , -4°C
Wind Chill: 11°F , -12°C
Dew Point: 14°F , -10°C
Humidity: 63%
Barometer: 30.25 inHg , 1024.4 hPa
Clouds: Clear
Visibility: 10 miles , 16 km
2019/11/12 20:55 KBTA 122055Z AUTO 17016G21KT 10SM CLR M04/M10 A3025 RMK AO2 T10371105
KJYR - York, Nebraska, USA
Distance from station: W 52mi, 84km
Updated: Tue, 12-Nov-2019 2:55pm CST
Clear
Clear
 Wind from S
Wind: S 21 mph , 33 km/h, Gust: 28 mph , 44 km/h
Temperature: 28°F , -2°C
Wind Chill: 14°F , -10°C
Dew Point: 14°F , -10°C
Humidity: 55%
Barometer: 30.21 inHg , 1023 hPa
Clouds: Clear
Visibility: 10 miles , 16 km
2019/11/12 20:55 KJYR 122055Z AUTO 19018G24KT 10SM CLR M02/M10 A3021 RMK AO2
 
KOMA - Omaha/Eppley, Nebraska, USA
Distance from station: NE 53mi, 85km
Updated: Tue, 12-Nov-2019 2:52pm CST
Mostly Cloudy
Mostly Cloudy
 Wind from S
Wind: S 21 mph , 33 km/h, Gust: 31 mph , 50 km/h
Temperature: 25°F , -4°C
Wind Chill: 10°F , -12°C
Dew Point: 10°F , -12°C
Humidity: 54%
Barometer: 30.31 inHg , 1026.4 hPa
Clouds: Mostly Cloudy
Visibility: 10 miles , 16 km
Cloud details: Few Clouds 16000 ft
Mostly Cloudy 25000 ft
2019/11/12 20:52 KOMA 122052Z 18018G27KT 10SM FEW160 BKN250 M04/M12 A3031 RMK AO2 PK WND 17028/2013 SLP280 T10391122 56049
KOLU - Columbus Muni, Nebraska, USA
Distance from station: NW 58mi, 93km
Updated: Tue, 12-Nov-2019 2:56pm CST
Clear
Clear
 Wind from S
Wind: S 16 mph , 26 km/h, Gust: 28 mph , 44 km/h
Temperature: 28°F , -2°C
Wind Chill: 16°F , -9°C
Dew Point: 18°F , -8°C
Humidity: 64%
Barometer: 30.20 inHg , 1022.7 hPa
Clouds: Clear
Visibility: 10 miles , 16 km
2019/11/12 20:56 KOLU 122056Z AUTO 18014G24KT 10SM CLR M02/M08 A3020 RMK AO2 PK WND 17028/2039 SLP258 60000 T10221083 56043 FZRANO